createdAt,value
2019-02-18T00:02:10.739Z,57.39
2019-02-18T00:04:40.443Z,57.57
2019-02-18T00:07:14.420Z,57.99
2019-02-18T00:09:41.320Z,57.67
2019-02-18T00:12:10.941Z,57.83
2019-02-18T00:14:40.527Z,59.11
2019-02-18T00:17:10.099Z,58.95
2019-02-18T00:19:39.739Z,58.17
2019-02-18T00:22:09.324Z,59.38
2019-02-18T00:24:38.928Z,58.79
2019-02-18T00:27:08.585Z,58.64
2019-02-18T00:29:38.199Z,58.91
2019-02-18T00:32:07.784Z,56.36
2019-02-18T00:34:37.438Z,54.99
2019-02-18T00:37:07.016Z,54.78
2019-02-18T00:39:36.621Z,55.94
2019-02-18T00:42:06.258Z,56.29
2019-02-18T00:44:35.845Z,56.19
2019-02-18T00:47:05.587Z,58.28
2019-02-18T00:49:35.232Z,57.35
2019-02-18T00:52:04.832Z,58.19
2019-02-18T00:54:34.514Z,60.07
2019-02-18T00:57:04.180Z,61.02
2019-02-18T00:59:33.858Z,60.90
2019-02-18T01:02:03.579Z,60.58
2019-02-18T01:04:33.213Z,60.45
2019-02-18T01:07:02.902Z,61.30
2019-02-18T01:09:32.470Z,60.27
2019-02-18T01:12:02.082Z,59.53
2019-02-18T01:14:31.715Z,59.56
2019-02-18T01:17:01.362Z,58.08
2019-02-18T01:19:31.011Z,57.54
2019-02-18T01:22:00.625Z,56.25
2019-02-18T01:24:30.226Z,57.62
2019-02-18T01:26:59.894Z,56.72
2019-02-18T01:29:29.550Z,55.96
2019-02-18T01:31:59.191Z,57.16
2019-02-18T01:34:28.796Z,56.96
2019-02-18T01:36:58.434Z,56.54
2019-02-18T01:39:28.006Z,56.26
2019-02-18T01:41:57.671Z,56.70
2019-02-18T01:44:27.252Z,56.48
2019-02-18T01:46:56.888Z,55.52
2019-02-18T01:49:26.497Z,56.41
2019-02-18T01:51:56.086Z,56.85
2019-02-18T01:54:25.704Z,57.70
2019-02-18T01:56:55.264Z,56.20
2019-02-18T01:59:24.927Z,55.93
2019-02-18T02:01:54.492Z,56.94
2019-02-18T02:04:24.095Z,57.41
2019-02-18T02:06:53.658Z,57.96
2019-02-18T02:09:23.230Z,58.13
2019-02-18T02:11:52.819Z,58.66
2019-02-18T02:14:22.397Z,59.18
2019-02-18T02:16:52.018Z,59.42
2019-02-18T02:19:21.576Z,60.51
2019-02-18T02:21:51.202Z,60.20
2019-02-18T02:24:20.800Z,60.52
2019-02-18T02:26:50.436Z,60.56
2019-02-18T02:29:20.027Z,60.98
2019-02-18T02:31:49.616Z,60.77
2019-02-18T02:34:19.258Z,59.15
2019-02-18T02:36:48.856Z,57.59
2019-02-18T02:39:18.480Z,57.28
2019-02-18T02:41:48.073Z,55.92
2019-02-18T02:44:17.686Z,55.21
2019-02-18T02:46:47.276Z,56.38
2019-02-18T02:49:16.898Z,55.06
2019-02-18T02:51:46.442Z,54.11
2019-02-18T02:54:16.056Z,54.49
2019-02-18T02:56:45.657Z,54.44
2019-02-18T02:59:15.279Z,54.71
2019-02-18T03:01:44.851Z,56.10
2019-02-18T03:04:14.509Z,57.02
2019-02-18T03:06:44.134Z,55.74
2019-02-18T03:09:13.763Z,56.17
2019-02-18T03:11:43.394Z,54.73
2019-02-18T03:14:12.972Z,55.85
2019-02-18T03:16:42.676Z,55.44
2019-02-18T03:19:12.297Z,57.77
2019-02-18T03:21:41.893Z,58.87
2019-02-18T03:24:11.526Z,59.17
2019-02-18T03:26:41.117Z,59.09
2019-02-18T03:30:04.692Z,60.74
2019-02-18T03:32:40.772Z,59.80
2019-02-18T03:35:10.888Z,59.55
2019-02-18T03:37:40.500Z,59.62
2019-02-18T03:40:10.317Z,62.71
2019-02-18T03:42:39.925Z,61.96
2019-02-18T03:48:37.158Z,62.32
2019-02-18T03:51:06.726Z,62.84
2019-02-18T03:53:36.380Z,61.35
2019-02-18T03:56:06.031Z,61.58
2019-02-18T03:58:35.604Z,63.63
2019-02-18T04:01:05.306Z,62.35
2019-02-18T04:03:35.031Z,61.78
2019-02-18T04:06:04.646Z,61.05
2019-02-18T04:08:42.329Z,61.09
2019-02-18T04:11:05.582Z,61.87
2019-02-18T04:13:35.137Z,61.19
2019-02-18T04:18:39.785Z,61.84
2019-02-18T04:21:09.414Z,61.64
2019-02-18T04:23:39.057Z,61.02
2019-02-18T04:26:08.638Z,60.43
2019-02-18T04:28:38.245Z,60.08
2019-02-18T04:31:07.850Z,60.70
2019-02-18T04:33:37.461Z,59.41
2019-02-18T04:36:07.099Z,60.42
2019-02-18T04:38:36.738Z,61.20
2019-02-18T04:41:06.415Z,59.29
2019-02-18T04:43:36.048Z,61.22
2019-02-18T04:46:05.639Z,59.89
2019-02-18T04:48:35.260Z,58.55
2019-02-18T04:51:04.952Z,58.71
2019-02-18T04:53:34.634Z,59.17
2019-02-18T04:56:04.227Z,56.68
2019-02-18T04:58:33.802Z,55.66
2019-02-18T05:01:03.469Z,56.89
2019-02-18T05:03:33.025Z,57.77
2019-02-18T05:06:02.624Z,58.32
2019-02-18T05:08:32.299Z,59.02
2019-02-18T05:11:01.879Z,60.46
2019-02-18T05:13:31.468Z,59.01
2019-02-18T05:16:01.125Z,58.88
2019-02-18T05:18:30.716Z,57.82
2019-02-18T05:21:00.329Z,57.35
2019-02-18T05:23:29.962Z,57.32
2019-02-18T05:25:59.579Z,56.46
2019-02-18T05:28:36.794Z,56.46
2019-02-18T05:31:06.367Z,56.93
2019-02-18T05:33:35.960Z,56.42
2019-02-18T05:36:05.566Z,55.47
2019-02-18T05:38:35.168Z,55.65
2019-02-18T05:41:04.748Z,55.21
2019-02-18T05:43:34.368Z,54.83
2019-02-18T05:46:03.965Z,54.81
2019-02-18T05:48:34.168Z,54.37
2019-02-18T05:51:04.898Z,53.63
2019-02-18T05:53:34.459Z,55.18
2019-02-18T05:56:04.034Z,52.99
2019-02-18T05:58:33.780Z,52.34
2019-02-18T06:01:03.353Z,55.54
2019-02-18T06:03:32.933Z,57.22
2019-02-18T06:06:02.546Z,58.31
2019-02-18T06:08:32.165Z,55.87
2019-02-18T06:11:01.753Z,53.61
2019-02-18T06:13:31.374Z,53.02
2019-02-18T06:16:00.928Z,53.71
2019-02-18T06:18:30.497Z,54.91
2019-02-18T06:21:00.151Z,54.37
2019-02-18T06:23:29.726Z,55.56
2019-02-18T06:25:59.387Z,54.63
2019-02-18T06:28:29.073Z,52.72
2019-02-18T06:30:58.667Z,54.95
2019-02-18T06:33:28.596Z,56.95
2019-02-18T06:35:58.272Z,54.52
2019-02-18T06:38:27.849Z,53.17
2019-02-18T06:40:57.426Z,54.44
2019-02-18T06:43:27.069Z,56.06
2019-02-18T06:46:15.444Z,55.25
2019-02-18T06:49:06.538Z,55.20
2019-02-18T06:51:47.235Z,55.21
2019-02-18T06:54:16.981Z,56.32
2019-02-18T06:59:48.821Z,51.47
2019-02-18T07:02:37.232Z,50.82
2019-02-18T07:05:25.819Z,50.90
2019-02-18T07:08:14.289Z,55.95
2019-02-18T07:11:02.712Z,54.35
2019-02-18T07:13:32.374Z,51.60
2019-02-18T07:16:01.970Z,50.44
2019-02-18T07:18:31.625Z,49.65
2019-02-18T07:21:01.236Z,50.11
2019-02-18T07:23:30.811Z,51.86
2019-02-18T07:26:00.443Z,51.26
2019-02-18T07:28:30.158Z,51.52
2019-02-18T07:30:59.787Z,51.08
2019-02-18T07:33:29.466Z,50.77
2019-02-18T07:35:59.055Z,49.88
2019-02-18T07:38:28.652Z,48.85
2019-02-18T07:40:58.317Z,48.15
2019-02-18T07:43:27.943Z,49.48
2019-02-18T07:45:57.576Z,49.68
2019-02-18T07:48:27.328Z,50.96
2019-02-18T07:50:57.009Z,54.77
2019-02-18T07:53:26.738Z,51.79
2019-02-18T07:55:56.564Z,51.79
2019-02-18T07:58:26.174Z,51.59
2019-02-18T08:00:55.784Z,48.42
2019-02-18T08:03:25.442Z,60.08
2019-02-18T08:05:55.174Z,51.57
2019-02-18T08:08:24.817Z,49.09
2019-02-18T08:10:54.516Z,52.81
2019-02-18T08:13:26.634Z,51.87
2019-02-18T08:15:55.494Z,49.62
2019-02-18T08:18:25.726Z,50.64
2019-02-18T08:20:55.389Z,49.44
2019-02-18T08:23:25.126Z,50.23
2019-02-18T08:25:54.973Z,48.79
2019-02-18T08:28:24.812Z,48.08
2019-02-18T08:30:54.439Z,48.34
2019-02-18T08:33:44.693Z,45.03
2019-02-18T08:36:14.290Z,45.13
2019-02-18T08:38:43.908Z,45.18
2019-02-18T08:41:13.578Z,45.20
2019-02-18T08:43:43.195Z,47.84
2019-02-18T08:46:12.769Z,46.97
2019-02-18T08:48:42.552Z,45.32
2019-02-18T08:51:12.140Z,44.94
2019-02-18T08:53:41.804Z,43.64
2019-02-18T08:56:11.479Z,45.12
2019-02-18T08:58:41.064Z,45.08
2019-02-18T09:01:10.775Z,54.98
2019-02-18T09:03:40.427Z,46.38
2019-02-18T09:06:10.179Z,42.91
2019-02-18T09:08:39.847Z,42.05
2019-02-18T09:11:09.499Z,41.22
2019-02-18T09:13:39.157Z,39.96
2019-02-18T09:16:08.766Z,37.74
2019-02-18T09:18:38.623Z,38.66
2019-02-18T09:21:08.254Z,38.86
2019-02-18T09:23:56.765Z,38.29
2019-02-18T09:26:26.448Z,38.26
2019-02-18T09:28:56.074Z,36.52
2019-02-18T09:34:18.262Z,36.46
2019-02-18T09:36:47.897Z,36.44
2019-02-18T09:39:30.101Z,35.84
2019-02-18T09:52:21.853Z,35.10
2019-02-18T09:54:51.507Z,34.61
2019-02-18T09:57:21.152Z,37.43
2019-02-18T09:59:50.754Z,36.16
2019-02-18T10:02:20.378Z,34.30
2019-02-18T10:04:49.977Z,34.90
2019-02-18T10:07:19.539Z,34.93
2019-02-18T10:09:49.175Z,35.37
2019-02-18T10:16:27.935Z,33.55
2019-02-18T10:20:00.709Z,33.02
2019-02-18T10:44:02.030Z,33.24
2019-02-18T10:46:31.660Z,31.26
2019-02-18T10:49:01.242Z,34.36
2019-02-18T10:51:30.874Z,33.49
2019-02-18T10:54:00.517Z,36.15
2019-02-18T10:56:30.301Z,32.48
2019-02-18T10:58:59.930Z,32.57
2019-02-18T11:01:29.617Z,31.09
2019-02-18T11:03:59.216Z,32.92
2019-02-18T11:06:28.842Z,32.11
2019-02-18T11:08:58.427Z,32.41
2019-02-18T11:11:28.016Z,32.81
2019-02-18T11:13:57.639Z,33.21
2019-02-18T11:16:27.243Z,35.58
2019-02-18T11:18:57.036Z,34.24
2019-02-18T11:21:26.668Z,34.12
2019-02-18T11:23:56.246Z,31.54
2019-02-18T11:26:25.856Z,31.09
2019-02-18T11:28:55.520Z,31.10
2019-02-18T11:31:25.118Z,30.69
2019-02-18T11:33:54.711Z,31.77
2019-02-18T11:50:12.772Z,30.13
2019-02-18T11:52:42.323Z,32.82
2019-02-18T11:55:12.095Z,32.39
2019-02-18T11:57:44.137Z,31.79
2019-02-18T12:04:01.052Z,29.76
2019-02-18T12:07:06.321Z,30.74
2019-02-18T12:13:39.418Z,30.11
2019-02-18T12:22:57.276Z,29.73
2019-02-18T12:25:36.914Z,32.88
2019-02-18T12:28:18.284Z,31.84
2019-02-18T12:30:55.813Z,32.27
2019-02-18T12:34:14.673Z,33.10
2019-02-18T12:36:56.572Z,33.40
2019-02-18T12:39:37.502Z,31.71
2019-02-18T12:42:21.534Z,30.06
2019-02-18T12:45:06.203Z,31.36
2019-02-18T12:47:41.894Z,30.72
2019-02-18T12:50:19.000Z,32.45
2019-02-18T12:52:58.183Z,32.10
2019-02-18T12:55:41.207Z,31.73
2019-02-18T12:58:54.444Z,32.33
2019-02-18T13:04:59.079Z,34.44
2019-02-18T13:07:34.847Z,34.62
2019-02-18T13:12:38.693Z,34.21
2019-02-18T13:15:10.325Z,34.40
2019-02-18T13:17:39.942Z,33.38
2019-02-18T13:20:10.042Z,35.22
2019-02-18T13:22:39.740Z,32.52
2019-02-18T13:25:29.843Z,34.73
2019-02-18T13:27:59.483Z,33.52
2019-02-18T13:30:29.088Z,31.99
2019-02-18T13:32:58.757Z,32.07
2019-02-18T13:35:28.341Z,31.70
2019-02-18T13:37:57.948Z,31.62
2019-02-18T13:40:27.882Z,33.68
2019-02-18T13:42:57.522Z,34.58
2019-02-18T13:45:27.155Z,34.12
2019-02-18T13:47:56.793Z,35.13
2019-02-18T13:50:26.390Z,33.30
2019-02-18T13:52:55.961Z,34.96
2019-02-18T13:55:25.835Z,33.15
2019-02-18T13:57:55.420Z,33.08
2019-02-18T14:00:25.191Z,33.32
2019-02-18T14:02:54.840Z,33.48
2019-02-18T14:05:25.069Z,33.29
2019-02-18T14:07:54.678Z,32.28
2019-02-18T14:10:24.608Z,31.75
2019-02-18T14:12:54.405Z,31.47
2019-02-18T14:15:24.123Z,30.24
2019-02-18T14:17:53.731Z,31.42
2019-02-18T14:20:23.455Z,30.79
2019-02-18T14:22:53.230Z,33.31
2019-02-18T14:25:22.832Z,33.66
2019-02-18T14:27:52.479Z,32.09
2019-02-18T14:30:22.176Z,31.82
2019-02-18T14:32:51.771Z,33.73
2019-02-18T14:35:21.618Z,31.01
2019-02-18T14:37:51.617Z,31.16
2019-02-18T14:40:23.274Z,30.99
2019-02-18T14:42:52.955Z,31.10
2019-02-18T14:45:22.767Z,30.21
2019-02-18T14:47:52.520Z,30.47
2019-02-18T14:50:22.167Z,30.00
2019-02-18T14:52:52.267Z,29.69
2019-02-18T14:55:21.870Z,30.79
2019-02-18T14:57:51.648Z,31.24
2019-02-18T15:00:23.266Z,31.09
2019-02-18T15:02:54.614Z,31.02
2019-02-18T15:05:45.280Z,31.38
2019-02-18T15:08:14.886Z,32.63
2019-02-18T15:10:44.621Z,33.03
2019-02-18T15:13:14.357Z,33.80
2019-02-18T15:15:46.051Z,34.02
2019-02-18T15:18:15.810Z,36.58
2019-02-18T15:20:45.541Z,33.88
2019-02-18T15:23:15.266Z,35.94
2019-02-18T15:25:44.874Z,36.30
2019-02-18T15:28:14.634Z,36.13
2019-02-18T15:30:44.586Z,36.21
2019-02-18T15:33:14.194Z,36.32
2019-02-18T15:35:43.881Z,36.47
2019-02-18T15:38:13.563Z,38.66
2019-02-18T15:40:43.199Z,37.53
2019-02-18T15:43:12.850Z,37.34
2019-02-18T15:45:42.453Z,37.18
2019-02-18T15:48:12.051Z,37.32
2019-02-18T15:50:41.709Z,36.90
2019-02-18T15:53:11.335Z,36.05
2019-02-18T15:55:41.121Z,37.76
2019-02-18T15:58:12.526Z,35.73
2019-02-18T16:00:42.229Z,35.57
2019-02-18T16:03:11.915Z,35.61
2019-02-18T16:05:41.606Z,35.67
2019-02-18T16:08:11.261Z,35.86
2019-02-18T16:10:40.935Z,35.91
2019-02-18T16:13:10.891Z,35.73
2019-02-18T16:15:40.494Z,35.39
2019-02-18T16:18:10.106Z,36.13
2019-02-18T16:20:39.768Z,36.18
2019-02-18T16:23:09.374Z,36.53
2019-02-18T16:25:38.998Z,37.12
2019-02-18T16:28:09.040Z,37.18
2019-02-18T16:30:38.636Z,37.70
2019-02-18T16:33:08.307Z,37.91
2019-02-18T16:35:38.143Z,38.09
2019-02-18T16:38:07.776Z,37.96
2019-02-18T16:40:39.433Z,38.55
2019-02-18T16:43:09.119Z,37.53
2019-02-18T16:45:38.915Z,37.52
2019-02-18T16:48:08.806Z,40.13
2019-02-18T16:50:38.518Z,38.29
2019-02-18T16:53:08.146Z,37.84
2019-02-18T16:55:37.934Z,38.38
2019-02-18T16:58:07.641Z,38.17
2019-02-18T17:03:44.502Z,39.53
2019-02-18T17:06:14.095Z,38.97
2019-02-18T17:08:43.723Z,40.00
2019-02-18T17:11:13.420Z,39.05
2019-02-18T17:13:43.065Z,39.37
2019-02-18T17:16:12.747Z,39.05
2019-02-18T17:18:42.474Z,39.42
2019-02-18T17:21:12.117Z,39.85
2019-02-18T17:23:41.751Z,39.46
2019-02-18T17:26:11.410Z,40.03
2019-02-18T17:28:41.017Z,39.96
2019-02-18T17:31:10.639Z,40.10
2019-02-18T17:33:40.338Z,40.44
2019-02-18T17:36:10.007Z,40.27
2019-02-18T17:38:39.607Z,40.15
2019-02-18T17:41:09.295Z,41.14
2019-02-18T17:43:38.950Z,38.32
2019-02-18T17:46:08.834Z,42.28
2019-02-18T17:48:38.487Z,43.15
2019-02-18T17:51:08.464Z,42.76
2019-02-18T17:53:38.129Z,42.84
2019-02-18T17:56:07.772Z,42.72
2019-02-18T17:58:37.428Z,41.98
2019-02-18T18:01:07.414Z,42.24
2019-02-18T18:03:38.156Z,42.41
2019-02-18T18:06:07.765Z,42.46
2019-02-18T18:08:37.375Z,43.38
2019-02-18T18:11:07.048Z,42.72
2019-02-18T18:13:36.674Z,42.55
2019-02-18T18:16:06.474Z,42.60
2019-02-18T18:18:36.165Z,42.32
2019-02-18T18:21:05.876Z,43.20
2019-02-18T18:23:35.541Z,42.99
2019-02-18T18:26:05.197Z,43.27
2019-02-18T18:28:34.809Z,44.31
2019-02-18T18:31:04.423Z,44.26
2019-02-18T18:33:34.105Z,44.92
2019-02-18T18:36:03.724Z,44.58
2019-02-18T18:38:33.337Z,44.57
2019-02-18T18:41:03.064Z,43.70
2019-02-18T18:43:34.117Z,43.49
2019-02-18T18:46:03.988Z,43.99
2019-02-18T18:48:33.943Z,43.26
2019-02-18T18:51:03.635Z,43.04
2019-02-18T18:53:33.240Z,42.85
2019-02-18T18:56:02.902Z,42.63
2019-02-18T18:58:32.691Z,42.76
2019-02-18T19:01:02.302Z,44.35
2019-02-18T19:03:31.949Z,42.93
2019-02-18T19:06:01.653Z,45.81
2019-02-18T19:08:31.286Z,46.09
2019-02-18T19:11:00.972Z,46.20
2019-02-18T19:13:30.567Z,45.86
2019-02-18T19:16:00.186Z,45.68
2019-02-18T19:18:29.854Z,45.60
2019-02-18T19:20:59.470Z,44.36
2019-02-18T19:23:29.112Z,45.38
2019-02-18T19:25:58.981Z,44.51
2019-02-18T19:28:28.631Z,45.59
2019-02-18T19:30:58.242Z,45.56
2019-02-18T19:33:27.878Z,45.05
2019-02-18T19:35:57.503Z,45.51
2019-02-18T19:38:27.158Z,45.31
2019-02-18T19:40:56.838Z,46.10
2019-02-18T19:43:26.475Z,45.32
2019-02-18T19:45:56.141Z,46.23
2019-02-18T19:48:25.824Z,46.83
2019-02-18T19:50:55.486Z,46.65
2019-02-18T19:53:27.298Z,46.69
2019-02-18T19:55:56.996Z,47.20
2019-02-18T19:58:26.713Z,48.40
2019-02-18T20:00:56.365Z,49.11
2019-02-18T20:03:26.028Z,48.89
2019-02-18T20:05:55.632Z,48.97
2019-02-18T20:08:25.257Z,48.20
2019-02-18T20:10:54.920Z,47.87
2019-02-18T20:13:24.513Z,47.10
2019-02-18T20:15:54.122Z,47.35
2019-02-18T20:18:23.784Z,47.83
2019-02-18T20:20:55.095Z,46.94
2019-02-18T20:23:26.997Z,46.86
2019-02-18T20:25:56.670Z,46.79
2019-02-18T20:28:26.288Z,46.91
2019-02-18T20:30:55.913Z,46.97
2019-02-18T20:33:25.597Z,47.94
2019-02-18T20:35:55.230Z,48.46
2019-02-18T20:38:24.872Z,48.33
2019-02-18T20:40:54.511Z,48.17
2019-02-18T20:43:24.143Z,48.09
2019-02-18T20:45:53.848Z,48.40
2019-02-18T20:48:45.578Z,48.06
2019-02-18T20:51:15.186Z,49.79
2019-02-18T20:53:44.748Z,48.76
2019-02-18T20:56:14.385Z,49.23
2019-02-18T20:58:46.442Z,48.87
2019-02-18T21:01:16.037Z,48.84
2019-02-18T21:03:45.738Z,48.50
2019-02-18T21:06:15.362Z,46.96
2019-02-18T21:08:44.957Z,46.69
2019-02-18T21:11:14.629Z,47.42
2019-02-18T21:13:44.208Z,48.46
2019-02-18T21:16:13.785Z,48.14
2019-02-18T21:18:43.462Z,49.40
2019-02-18T21:21:13.056Z,48.11
2019-02-18T21:23:42.640Z,49.67
2019-02-18T21:26:12.308Z,50.44
2019-02-18T21:28:41.936Z,50.15
2019-02-18T21:31:11.540Z,50.74
2019-02-18T21:33:41.176Z,50.75
2019-02-18T21:36:10.766Z,50.62
2019-02-18T21:38:40.338Z,51.97
2019-02-18T21:41:11.684Z,51.93
2019-02-18T21:43:41.272Z,51.59
2019-02-18T21:46:10.876Z,51.75
2019-02-18T21:48:40.520Z,51.87
2019-02-18T21:51:10.106Z,51.97
2019-02-18T21:53:39.711Z,51.99
2019-02-18T21:56:09.381Z,51.73
2019-02-18T21:58:38.974Z,52.06
2019-02-18T22:01:08.547Z,52.28
2019-02-18T22:03:38.189Z,51.70
2019-02-18T22:06:07.795Z,51.07
2019-02-18T22:08:37.368Z,51.65
2019-02-18T22:11:07.043Z,50.90
2019-02-18T22:13:36.644Z,50.76
2019-02-18T22:16:06.200Z,50.77
2019-02-18T22:18:35.796Z,50.39
2019-02-18T22:21:05.470Z,49.68
2019-02-18T22:23:35.024Z,50.47
2019-02-18T22:26:04.843Z,50.70
2019-02-18T22:28:34.413Z,50.80
2019-02-18T22:31:04.097Z,50.55
2019-02-18T22:33:33.714Z,50.10
2019-02-18T22:36:03.272Z,49.62
2019-02-18T22:38:32.844Z,49.94
2019-02-18T22:41:04.217Z,50.42
2019-02-18T22:43:33.789Z,49.37
2019-02-18T22:46:03.363Z,50.06
2019-02-18T22:48:32.991Z,50.35
2019-02-18T22:51:02.657Z,50.51
2019-02-18T22:53:32.250Z,50.74
2019-02-18T22:56:02.172Z,51.87
2019-02-18T22:58:31.772Z,52.23
2019-02-18T23:04:13.787Z,52.54
2019-02-18T23:06:43.405Z,51.84
2019-02-18T23:12:03.742Z,51.72
2019-02-18T23:14:33.309Z,51.02
2019-02-18T23:17:02.919Z,50.92
2019-02-18T23:19:32.540Z,51.55
2019-02-18T23:22:02.117Z,51.10
2019-02-18T23:24:31.715Z,51.31
2019-02-18T23:27:01.391Z,51.70
2019-02-18T23:32:21.385Z,52.38
2019-02-18T23:34:50.994Z,52.47
2019-02-18T23:37:20.553Z,52.87
2019-02-18T23:39:50.200Z,52.75
2019-02-18T23:42:19.791Z,53.12
2019-02-18T23:44:49.385Z,53.47
2019-02-18T23:47:19.024Z,53.35
2019-02-18T23:49:48.588Z,52.65
2019-02-18T23:52:18.204Z,52.36
2019-02-18T23:54:47.827Z,52.24
2019-02-18T23:57:17.414Z,52.21
2019-02-18T23:59:46.999Z,53.08
